createdAt,value
2018-06-04T00:01:56.200Z,15.50
2018-06-04T00:04:35.247Z,13.20
2018-06-04T00:07:07.746Z,12.63
2018-06-04T00:09:44.855Z,13.63
2018-06-04T00:12:20.619Z,15.33
2018-06-04T00:14:49.443Z,13.60
2018-06-04T00:17:18.277Z,13.47
2018-06-04T00:19:59.511Z,13.33
2018-06-04T00:22:32.095Z,15.10
2018-06-04T00:25:00.911Z,16.50
2018-06-04T00:27:32.827Z,14.00
2018-06-04T00:30:02.663Z,13.83
2018-06-04T00:32:31.407Z,14.00
2018-06-04T00:35:06.123Z,17.90
2018-06-04T00:37:34.883Z,13.27
2018-06-04T00:40:05.735Z,14.40
2018-06-04T00:42:34.579Z,13.50
2018-06-04T00:45:08.951Z,15.00
2018-06-04T00:47:37.778Z,17.60
2018-06-04T00:50:20.070Z,14.93
2018-06-04T00:52:49.918Z,13.63
2018-06-04T00:55:18.690Z,15.23
2018-06-04T00:57:48.546Z,14.30
2018-06-04T01:00:17.426Z,15.20
2018-06-04T01:02:58.242Z,15.03
2018-06-04T01:05:28.114Z,14.73
2018-06-04T01:08:01.302Z,14.67
2018-06-04T01:13:26.810Z,15.40
2018-06-04T01:15:59.675Z,14.77
2018-06-04T01:18:46.679Z,14.57
2018-06-04T01:21:26.387Z,14.60
2018-06-04T01:24:00.671Z,15.20
2018-06-04T01:26:29.430Z,20.33
2018-06-04T01:28:59.187Z,17.03
2018-06-04T01:31:31.454Z,16.70
2018-06-04T01:33:59.998Z,16.90
2018-06-04T01:36:29.727Z,18.63
2018-06-04T01:38:58.479Z,18.40
2018-06-04T01:41:28.246Z,16.97
2018-06-04T01:44:00.215Z,19.33
2018-06-04T01:46:45.910Z,20.67
2018-06-04T01:49:22.373Z,27.57
2018-06-04T01:51:51.227Z,29.87
2018-06-04T01:54:33.596Z,19.83
2018-06-04T01:57:12.995Z,16.73
2018-06-04T01:59:43.863Z,19.53
2018-06-04T02:02:12.672Z,23.67
2018-06-04T02:04:51.455Z,16.83
2018-06-04T02:07:22.315Z,18.33
2018-06-04T02:09:52.198Z,17.73
2018-06-04T02:12:21.043Z,27.77
2018-06-04T02:14:49.835Z,20.10
2018-06-04T02:17:18.635Z,21.40
2018-06-04T02:19:51.603Z,19.80
2018-06-04T02:22:24.131Z,18.27
2018-06-04T02:24:53.907Z,24.20
2018-06-04T02:27:27.827Z,23.70
2018-06-04T02:30:00.819Z,23.63
2018-06-04T02:32:39.235Z,23.97
2018-06-04T02:35:11.787Z,29.77
2018-06-04T02:37:41.623Z,18.90
2018-06-04T02:40:21.171Z,24.83
2018-06-04T02:42:50.056Z,22.50
2018-06-04T02:45:18.911Z,30.47
2018-06-04T02:47:47.699Z,22.40
2018-06-04T02:50:17.542Z,22.03
2018-06-04T02:52:48.351Z,22.70
2018-06-04T02:55:31.129Z,26.50
2018-06-04T02:58:00.993Z,30.13
2018-06-04T03:00:33.035Z,26.60
2018-06-04T03:03:01.464Z,30.70
2018-06-04T03:05:32.230Z,26.10
2018-06-04T03:08:01.043Z,22.10
2018-06-04T03:13:25.143Z,34.80
2018-06-04T03:15:54.968Z,27.93
2018-06-04T03:18:40.486Z,32.77
2018-06-04T03:21:15.011Z,28.80
2018-06-04T03:23:58.747Z,42.40
2018-06-04T03:26:43.607Z,20.53
2018-06-04T03:29:22.459Z,27.90
2018-06-04T03:31:51.115Z,27.27
2018-06-04T03:34:19.963Z,37.03
2018-06-04T03:36:49.766Z,30.63
2018-06-04T03:39:24.191Z,28.43
2018-06-04T03:41:52.995Z,27.50
2018-06-04T03:44:21.843Z,28.97
2018-06-04T03:46:50.680Z,30.33
2018-06-04T03:49:21.518Z,23.60
2018-06-04T03:51:50.311Z,27.47
2018-06-04T03:54:19.170Z,20.40
2018-06-04T03:56:48.970Z,22.50
2018-06-04T03:59:26.801Z,24.37
2018-06-04T04:02:00.689Z,22.23
2018-06-04T04:04:32.645Z,27.67
2018-06-04T04:07:01.430Z,34.70
2018-06-04T04:09:30.230Z,31.30
2018-06-04T04:12:02.396Z,21.90
2018-06-04T04:14:31.158Z,19.87
2018-06-04T04:17:00.984Z,19.17
2018-06-04T04:19:36.590Z,15.97
2018-06-04T04:22:16.523Z,22.80
2018-06-04T04:24:46.317Z,23.90
2018-06-04T04:27:16.091Z,21.20
2018-06-04T04:29:47.889Z,28.10
2018-06-04T04:32:23.857Z,29.27
2018-06-04T04:34:52.741Z,18.17
2018-06-04T04:37:21.578Z,25.03
2018-06-04T04:39:50.381Z,23.67
2018-06-04T04:42:19.190Z,23.60
2018-06-04T04:44:48.998Z,17.13
2018-06-04T04:47:17.786Z,22.53
2018-06-04T04:49:49.517Z,22.43
2018-06-04T04:52:23.414Z,18.43
2018-06-04T04:54:53.302Z,27.10
2018-06-04T04:57:24.037Z,21.67
2018-06-04T04:59:53.825Z,16.90
2018-06-04T05:02:22.694Z,20.13
2018-06-04T05:04:52.273Z,20.77
2018-06-04T05:07:24.178Z,18.03
2018-06-04T05:09:53.084Z,16.53
2018-06-04T05:12:32.329Z,14.47
2018-06-04T05:15:06.126Z,20.07
2018-06-04T05:17:36.910Z,18.57
2018-06-04T05:20:06.002Z,13.80
2018-06-04T05:22:54.398Z,13.80
2018-06-04T05:25:35.361Z,13.13
2018-06-04T05:28:08.034Z,15.73
2018-06-04T05:30:37.798Z,13.80
2018-06-04T05:33:07.641Z,13.97
2018-06-04T05:35:38.473Z,20.63
2018-06-04T05:38:07.282Z,20.33
2018-06-04T05:40:36.158Z,25.17
2018-06-04T05:43:04.990Z,11.30
2018-06-04T05:45:40.516Z,23.17
2018-06-04T05:48:09.385Z,23.57
2018-06-04T05:50:45.426Z,27.57
2018-06-04T05:53:26.857Z,24.10
2018-06-04T05:55:55.751Z,15.70
2018-06-04T05:58:24.274Z,21.13
2018-06-04T06:00:56.502Z,18.03
2018-06-04T06:03:25.330Z,11.67
2018-06-04T06:05:54.130Z,12.50
2018-06-04T06:08:22.931Z,14.37
2018-06-04T06:10:53.742Z,24.23
2018-06-04T06:13:22.541Z,12.50
2018-06-04T06:15:52.337Z,14.60
2018-06-04T06:18:22.165Z,16.83
2018-06-04T06:20:54.965Z,12.00
2018-06-04T06:23:24.765Z,16.90
2018-06-04T06:25:53.555Z,11.17
2018-06-04T06:28:25.902Z,18.00
2018-06-04T06:31:00.754Z,11.63
2018-06-04T06:33:34.135Z,10.33
2018-06-04T06:36:04.950Z,9.90
2018-06-04T06:38:44.141Z,9.47
2018-06-04T06:41:14.925Z,10.20
2018-06-04T06:43:48.205Z,9.57
2018-06-04T06:46:17.022Z,9.00
2018-06-04T06:48:46.837Z,8.67
2018-06-04T06:51:15.573Z,9.97
2018-06-04T06:53:48.357Z,8.80
2018-06-04T06:56:33.441Z,9.33
2018-06-04T06:59:02.257Z,9.00
2018-06-04T07:01:33.089Z,10.00
2018-06-04T07:04:01.857Z,9.10
2018-06-04T07:06:41.654Z,9.60
2018-06-04T07:09:17.693Z,9.70
2018-06-04T07:11:57.557Z,10.47
2018-06-04T07:14:32.504Z,10.17
2018-06-04T07:17:03.241Z,10.47
2018-06-04T07:19:46.785Z,10.27
2018-06-04T07:22:19.805Z,8.40
2018-06-04T07:24:51.661Z,9.20
2018-06-04T07:27:39.745Z,9.00
2018-06-04T07:30:24.809Z,9.93
2018-06-04T07:33:02.068Z,9.43
2018-06-04T07:35:32.889Z,9.47
2018-06-04T07:38:01.645Z,8.80
2018-06-04T07:40:32.361Z,10.90
2018-06-04T07:43:02.157Z,8.27
2018-06-04T07:48:29.969Z,8.63
2018-06-04T07:50:58.709Z,10.60
2018-06-04T07:53:46.269Z,9.83
2018-06-04T07:59:13.425Z,8.50
2018-06-04T08:01:48.109Z,8.70
2018-06-04T08:04:22.707Z,7.63
2018-06-04T08:06:55.234Z,9.30
2018-06-04T08:09:25.078Z,8.13
2018-06-04T08:11:53.916Z,8.80
2018-06-04T08:14:22.876Z,8.73
2018-06-04T08:16:51.705Z,7.33
2018-06-04T08:22:18.333Z,11.00
2018-06-04T08:24:48.039Z,8.90
2018-06-04T08:27:16.765Z,7.40
2018-06-04T08:29:45.545Z,6.90
2018-06-04T08:32:18.204Z,7.60
2018-06-04T08:34:57.669Z,7.60
2018-06-04T08:37:26.458Z,7.53
2018-06-04T08:39:55.176Z,7.47
2018-06-04T08:42:24.013Z,7.63
2018-06-04T08:44:52.777Z,9.63
2018-06-04T08:47:31.161Z,7.43
2018-06-04T08:49:59.993Z,7.40
2018-06-04T08:52:42.065Z,7.20
2018-06-04T08:55:10.877Z,6.70
2018-06-04T08:57:39.597Z,6.10
2018-06-04T09:00:10.317Z,7.37
2018-06-04T09:02:40.069Z,6.53
2018-06-04T09:05:08.933Z,5.70
2018-06-04T09:07:38.664Z,5.90
2018-06-04T09:10:13.324Z,6.00
2018-06-04T09:12:47.788Z,7.20
2018-06-04T09:15:20.568Z,5.50
2018-06-04T09:17:51.293Z,6.77
2018-06-04T09:20:27.896Z,6.70
2018-06-04T09:22:57.620Z,6.97
2018-06-04T09:25:27.364Z,6.20
2018-06-04T09:28:01.945Z,6.23
2018-06-04T09:30:42.412Z,5.93
2018-06-04T09:33:12.144Z,5.00
2018-06-04T09:35:44.424Z,5.30
2018-06-04T09:38:16.221Z,4.50
2018-06-04T09:40:52.852Z,5.00
2018-06-04T09:43:22.493Z,5.43
2018-06-04T09:46:01.616Z,6.70
2018-06-04T09:48:47.856Z,4.60
2018-06-04T09:51:21.693Z,6.20
2018-06-04T09:53:53.628Z,5.53
2018-06-04T09:56:25.652Z,3.40
2018-06-04T09:58:54.417Z,7.10
2018-06-04T10:04:16.471Z,5.30
2018-06-04T10:06:46.276Z,4.47
2018-06-04T10:09:19.812Z,6.03
2018-06-04T10:12:02.732Z,5.23
2018-06-04T10:14:37.164Z,4.77
2018-06-04T10:17:13.096Z,4.63
2018-06-04T10:19:48.032Z,4.07
2018-06-04T10:22:37.804Z,4.70
2018-06-04T10:25:26.484Z,6.80
2018-06-04T10:27:55.365Z,4.53
2018-06-04T10:30:30.007Z,4.40
2018-06-04T10:32:58.821Z,4.90
2018-06-04T10:35:32.745Z,3.90
2018-06-04T10:38:03.476Z,3.77
2018-06-04T10:40:43.064Z,4.10
2018-06-04T10:43:11.784Z,4.53
2018-06-04T10:45:40.509Z,4.47
2018-06-04T10:48:10.321Z,5.60
2018-06-04T10:50:43.784Z,4.47
2018-06-04T10:56:17.044Z,4.87
2018-06-04T10:58:45.796Z,5.07
2018-06-04T11:01:14.583Z,5.23
2018-06-04T11:03:54.808Z,5.00
2018-06-04T11:06:23.624Z,5.00
2018-06-04T11:09:03.025Z,4.00
2018-06-04T11:11:36.464Z,8.20
2018-06-04T11:14:28.240Z,5.60
2018-06-04T11:16:58.000Z,7.23
2018-06-04T11:19:29.876Z,9.27
2018-06-04T11:21:58.660Z,6.90
2018-06-04T11:24:31.136Z,4.50
2018-06-04T11:27:02.896Z,9.23
2018-06-04T11:29:31.624Z,4.70
2018-06-04T11:32:03.968Z,4.60
2018-06-04T11:34:33.696Z,4.97
2018-06-04T11:37:02.416Z,4.33
2018-06-04T11:39:31.144Z,6.00
2018-06-04T11:42:00.940Z,5.37
2018-06-04T11:44:44.379Z,5.27
2018-06-04T11:47:20.712Z,58.20
2018-06-04T11:49:54.020Z,10.23
2018-06-04T11:52:24.797Z,4.70
2018-06-04T11:54:55.592Z,4.63
2018-06-04T12:00:17.536Z,4.83
2018-06-04T12:02:47.251Z,5.20
2018-06-04T12:05:16.056Z,4.73
2018-06-04T12:07:49.807Z,5.33
2018-06-04T12:10:18.527Z,5.53
2018-06-04T12:12:52.287Z,5.50
2018-06-04T12:15:27.193Z,5.07
2018-06-04T12:18:00.215Z,4.17
2018-06-04T12:20:30.952Z,5.30
2018-06-04T12:22:59.682Z,5.00
2018-06-04T12:25:28.483Z,4.83
2018-06-04T12:27:58.266Z,10.23
2018-06-04T12:30:34.508Z,6.13
2018-06-04T12:33:05.244Z,5.07
2018-06-04T12:35:35.100Z,7.33
2018-06-04T12:38:07.664Z,4.73
2018-06-04T12:40:36.451Z,5.13
2018-06-04T12:43:16.103Z,4.50
2018-06-04T12:45:45.820Z,4.67
2018-06-04T12:48:14.572Z,6.40
2018-06-04T12:50:43.359Z,4.57
2018-06-04T12:53:15.840Z,4.43
2018-06-04T12:55:49.827Z,4.70
2018-06-04T12:58:18.567Z,3.97
2018-06-04T13:03:44.308Z,4.40
2018-06-04T13:06:22.528Z,3.90
2018-06-04T13:09:04.456Z,4.60
2018-06-04T13:11:33.191Z,4.57
2018-06-04T13:14:03.523Z,4.23
2018-06-04T13:16:32.292Z,4.73
2018-06-04T13:19:01.055Z,4.47
2018-06-04T13:21:30.896Z,4.47
2018-06-04T13:24:22.652Z,4.33
2018-06-04T13:26:51.385Z,5.10
2018-06-04T13:29:28.179Z,3.83
2018-06-04T13:31:57.831Z,3.90
2018-06-04T13:34:27.045Z,4.10
2018-06-04T13:37:00.335Z,4.20
2018-06-04T13:39:32.336Z,4.20
2018-06-04T13:42:04.300Z,4.30
2018-06-04T13:44:36.139Z,4.40
2018-06-04T13:47:04.895Z,3.83
2018-06-04T13:49:47.003Z,4.50
2018-06-04T13:52:16.739Z,3.63
2018-06-04T13:54:45.463Z,4.33
2018-06-04T13:57:16.937Z,4.33
2018-06-04T13:59:51.283Z,4.90
2018-06-04T14:02:20.871Z,4.80
2018-06-04T14:05:02.200Z,3.60
2018-06-04T14:07:36.803Z,4.13
2018-06-04T14:10:07.575Z,4.10
2018-06-04T14:12:36.295Z,3.57
2018-06-04T14:15:05.031Z,5.97
2018-06-04T14:20:30.775Z,4.70
2018-06-04T14:23:09.095Z,46.23
2018-06-04T14:25:37.951Z,4.90
2018-06-04T14:28:12.763Z,5.83
2018-06-04T14:30:43.519Z,3.93
2018-06-04T14:33:35.405Z,5.67
2018-06-04T14:36:05.163Z,3.90
2018-06-04T14:38:33.959Z,6.13
2018-06-04T14:41:10.831Z,4.27
2018-06-04T14:43:40.631Z,4.20
2018-06-04T14:46:11.630Z,4.13
2018-06-04T14:48:55.382Z,5.10
2018-06-04T14:51:33.778Z,4.47
2018-06-04T14:54:02.639Z,6.70
2018-06-04T14:56:36.647Z,4.30
2018-06-04T14:59:05.323Z,3.90
2018-06-04T15:01:35.044Z,4.30
2018-06-04T15:04:03.774Z,6.60
2018-06-04T15:06:32.491Z,3.27
2018-06-04T15:09:07.538Z,4.83
2018-06-04T15:11:36.687Z,4.00
2018-06-04T15:14:05.407Z,3.63
2018-06-04T15:16:40.076Z,3.60
2018-06-04T15:19:20.062Z,3.00
2018-06-04T15:21:48.703Z,6.73
2018-06-04T15:24:23.226Z,3.87
2018-06-04T15:26:52.002Z,3.90
2018-06-04T15:29:21.774Z,42.90
2018-06-04T15:31:50.523Z,3.53
2018-06-04T15:34:23.302Z,7.77
2018-06-04T15:36:52.050Z,6.70
2018-06-04T15:39:21.801Z,3.40
2018-06-04T15:41:51.563Z,4.97
2018-06-04T15:44:36.611Z,3.63
2018-06-04T15:47:05.425Z,8.03
2018-06-04T15:52:27.526Z,3.53
2018-06-04T15:55:02.234Z,5.27
2018-06-04T15:57:43.661Z,3.03
2018-06-04T16:00:21.486Z,5.87
2018-06-04T16:02:50.362Z,6.27
2018-06-04T16:05:20.074Z,5.03
2018-06-04T16:07:52.478Z,7.07
2018-06-04T16:10:28.763Z,4.10
2018-06-04T16:12:57.538Z,3.40
2018-06-04T16:15:31.018Z,3.40
2018-06-04T16:18:04.514Z,3.63
2018-06-04T16:20:34.230Z,3.93
2018-06-04T16:23:03.951Z,3.50
2018-06-04T16:25:34.665Z,3.83
2018-06-04T16:28:03.554Z,3.97
2018-06-04T16:30:32.318Z,3.60
2018-06-04T16:33:03.070Z,3.57
2018-06-04T16:35:35.482Z,4.00
2018-06-04T16:38:09.726Z,4.87
2018-06-04T16:40:45.551Z,4.17
2018-06-04T16:43:38.212Z,3.80
2018-06-04T16:46:08.922Z,3.50
2018-06-04T16:48:37.474Z,4.20
2018-06-04T16:51:06.122Z,5.03
2018-06-04T16:53:34.902Z,3.80
2018-06-04T16:56:03.758Z,6.57
2018-06-04T16:58:34.498Z,4.00
2018-06-04T17:01:04.286Z,3.53
2018-06-04T17:03:43.173Z,3.90
2018-06-04T17:06:12.997Z,4.20
2018-06-04T17:08:42.686Z,3.87
2018-06-04T17:11:15.362Z,3.70
2018-06-04T17:13:49.294Z,3.80
2018-06-04T17:16:40.494Z,3.70
2018-06-04T17:19:17.636Z,7.27
2018-06-04T17:21:46.401Z,3.50
2018-06-04T17:24:15.176Z,5.83
2018-06-04T17:26:45.002Z,5.80
2018-06-04T17:29:14.006Z,4.30
2018-06-04T17:31:42.730Z,4.23
2018-06-04T17:34:13.522Z,4.00
2018-06-04T17:36:52.573Z,4.60
2018-06-04T17:39:33.087Z,4.93
2018-06-04T17:42:01.730Z,4.20
2018-06-04T17:44:35.198Z,4.57
2018-06-04T17:47:03.990Z,4.10
2018-06-04T17:49:32.753Z,3.70
2018-06-04T17:52:03.541Z,4.80
2018-06-04T17:54:35.529Z,4.67
2018-06-04T17:57:04.382Z,5.10
2018-06-04T17:59:33.162Z,4.07
2018-06-04T18:02:05.613Z,3.90
2018-06-04T18:04:46.007Z,3.77
2018-06-04T18:07:14.797Z,6.40
2018-06-04T18:09:43.534Z,4.20
2018-06-04T18:12:12.342Z,4.17
2018-06-04T18:14:41.134Z,4.10
2018-06-04T18:17:09.925Z,4.57
2018-06-04T18:19:40.793Z,4.17
2018-06-04T18:22:09.645Z,9.20
2018-06-04T18:24:38.373Z,7.57
2018-06-04T18:27:08.137Z,4.33
2018-06-04T18:29:36.949Z,5.20
2018-06-04T18:32:06.653Z,4.13
2018-06-04T18:34:37.434Z,5.90
2018-06-04T18:37:06.250Z,5.13
2018-06-04T18:39:40.669Z,4.67
2018-06-04T18:42:15.042Z,6.50
2018-06-04T18:44:43.884Z,4.50
2018-06-04T18:47:16.353Z,5.60
2018-06-04T18:49:50.018Z,10.43
2018-06-04T18:52:23.054Z,5.80
2018-06-04T18:54:53.801Z,4.73
2018-06-04T18:57:33.010Z,5.10
2018-06-04T19:00:05.549Z,4.83
2018-06-04T19:02:34.278Z,7.30
2018-06-04T19:05:05.075Z,4.60
2018-06-04T19:07:33.806Z,4.97
2018-06-04T19:10:02.610Z,5.27
2018-06-04T19:12:41.086Z,4.43
2018-06-04T19:15:09.829Z,5.63
2018-06-04T19:17:38.668Z,4.77
2018-06-04T19:20:07.532Z,5.80
2018-06-04T19:22:37.293Z,5.30
2018-06-04T19:25:08.173Z,4.90
2018-06-04T19:27:46.873Z,7.87
2018-06-04T19:30:21.117Z,6.60
2018-06-04T19:32:51.925Z,7.43
2018-06-04T19:35:24.534Z,9.10
2018-06-04T19:37:57.265Z,6.20
2018-06-04T19:40:26.045Z,6.70
2018-06-04T19:42:54.841Z,6.57
2018-06-04T19:45:26.997Z,6.57
2018-06-04T19:47:55.867Z,6.37
2018-06-04T19:50:24.677Z,6.50
2018-06-04T19:52:54.573Z,6.63
2018-06-04T19:55:23.377Z,7.13
2018-06-04T19:57:52.260Z,7.67
2018-06-04T20:00:26.082Z,7.70
2018-06-04T20:02:55.862Z,6.13
2018-06-04T20:05:24.661Z,6.53
2018-06-04T20:07:56.725Z,6.77
2018-06-04T20:10:25.521Z,7.17
2018-06-04T20:13:14.238Z,7.20
2018-06-04T20:15:45.081Z,6.37
2018-06-04T20:18:13.909Z,5.90
2018-06-04T20:20:43.726Z,6.20
2018-06-04T20:23:18.549Z,6.20
2018-06-04T20:25:47.509Z,6.40
2018-06-04T20:28:23.129Z,6.70
2018-06-04T20:30:57.705Z,5.87
2018-06-04T20:36:20.593Z,6.50
2018-06-04T20:38:56.217Z,5.87
2018-06-04T20:41:26.185Z,5.80
2018-06-04T20:44:05.498Z,5.77
2018-06-04T20:46:34.905Z,5.70
2018-06-04T20:49:20.517Z,6.50
2018-06-04T20:51:53.297Z,6.20
2018-06-04T20:54:32.685Z,8.13
2018-06-04T20:57:05.169Z,6.37
2018-06-04T20:59:33.949Z,5.63
2018-06-04T21:02:03.694Z,5.77
2018-06-04T21:04:43.317Z,8.33
2018-06-04T21:07:12.993Z,6.10
2018-06-04T21:09:48.366Z,6.70
2018-06-04T21:12:28.353Z,6.00
2018-06-04T21:15:00.562Z,5.67
2018-06-04T21:17:30.393Z,5.73
2018-06-04T21:20:06.853Z,5.83
2018-06-04T21:22:45.239Z,6.27
2018-06-04T21:25:19.605Z,5.77
2018-06-04T21:27:48.533Z,6.27
2018-06-04T21:30:26.145Z,6.33
2018-06-04T21:32:55.905Z,5.70
2018-06-04T21:35:24.757Z,8.03
2018-06-04T21:37:53.575Z,9.03
2018-06-04T21:40:28.169Z,5.97
2018-06-04T21:42:56.993Z,6.40
2018-06-04T21:45:25.821Z,7.00
2018-06-04T21:47:54.616Z,6.87
2018-06-04T21:50:25.453Z,6.50
2018-06-04T21:52:59.281Z,6.40
2018-06-04T21:55:31.136Z,6.13
2018-06-04T21:58:11.966Z,6.90
2018-06-04T22:00:48.297Z,5.83
2018-06-04T22:03:19.081Z,7.60
2018-06-04T22:05:47.880Z,7.63
2018-06-04T22:08:17.684Z,7.00
2018-06-04T22:10:48.548Z,6.77
2018-06-04T22:13:24.180Z,10.30
2018-06-04T22:15:56.568Z,6.60
2018-06-04T22:18:25.340Z,7.40
2018-06-04T22:20:55.153Z,6.77
2018-06-04T22:23:35.868Z,6.33
2018-06-04T22:26:05.624Z,6.30
2018-06-04T22:28:34.421Z,8.03
2018-06-04T22:31:03.205Z,7.03
2018-06-04T22:33:34.065Z,8.90
2018-06-04T22:36:07.121Z,8.87
2018-06-04T22:38:35.913Z,6.87
2018-06-04T22:41:04.717Z,6.10
2018-06-04T22:43:37.721Z,5.80
2018-06-04T22:46:06.477Z,7.23
2018-06-04T22:48:36.310Z,6.63
2018-06-04T22:51:05.073Z,7.10
2018-06-04T22:53:34.121Z,7.03
2018-06-04T22:56:03.933Z,10.53
2018-06-04T22:58:37.797Z,6.83
2018-06-04T23:01:06.629Z,11.00
2018-06-04T23:03:41.237Z,8.70
2018-06-04T23:06:13.569Z,7.60
2018-06-04T23:08:42.410Z,7.30
2018-06-04T23:11:12.186Z,7.50
2018-06-04T23:13:40.981Z,6.37
2018-06-04T23:16:14.089Z,7.53
2018-06-04T23:18:49.528Z,7.27
2018-06-04T23:21:32.777Z,7.13
2018-06-04T23:24:01.663Z,7.60
2018-06-04T23:26:32.445Z,9.70
2018-06-04T23:29:09.078Z,11.23
2018-06-04T23:32:01.609Z,9.50
2018-06-04T23:34:30.460Z,8.00
2018-06-04T23:37:05.316Z,7.77
2018-06-04T23:39:35.097Z,7.50
2018-06-04T23:42:07.481Z,8.50
2018-06-04T23:44:37.285Z,8.10
2018-06-04T23:47:06.045Z,7.80
2018-06-04T23:49:34.821Z,8.73
2018-06-04T23:52:03.624Z,8.23
2018-06-04T23:54:43.600Z,10.23
2018-06-04T23:57:13.412Z,11.60
2018-06-04T23:59:42.196Z,8.97
